Time;durP1;ratioP1;P1;durP2;ratioP2;P2;SDS_P1;SDS_P2;PMS_P1;PMS_P2;Temp;Humidity;BMP_temperature;BMP_pressure;BME280_temperature;BME280_humidity;BME280_pressure;Samples;Min_cycle;Max_cycle;Signal;HPM_P1;HPM_P2
2021/03/22 00:00:00;;;;;;;9.93;4.83;;;6.60;77.10;;;;;;5067685;28;20275;-79
2021/03/22 00:02:26;;;;;;;10.90;3.40;;;6.60;77.20;;;;;;5072612;28;20891;-79
2021/03/22 00:04:52;;;;;;;15.23;4.33;;;6.50;77.50;;;;;;5073540;28;20781;-79
2021/03/22 00:07:17;;;;;;;16.20;4.20;;;6.50;77.70;;;;;;5073433;28;20200;-78
2021/03/22 00:09:43;;;;;;;13.10;3.97;;;6.50;77.90;;;;;;5074944;28;20175;-78
2021/03/22 00:12:09;;;;;;;24.97;5.00;;;6.50;78.00;;;;;;5072787;28;20200;-79
2021/03/22 00:14:35;;;;;;;20.33;4.15;;;6.60;77.90;;;;;;5073296;28;20411;-79
2021/03/22 00:17:02;;;;;;;15.33;4.53;;;6.60;77.80;;;;;;5074463;28;20172;-79
2021/03/22 00:19:30;;;;;;;13.05;4.00;;;6.60;77.80;;;;;;5074555;28;20175;-79
2021/03/22 00:21:56;;;;;;;11.23;3.88;;;6.60;77.70;;;;;;5073962;28;20222;-79
2021/03/22 00:24:22;;;;;;;18.77;4.97;;;6.60;77.80;;;;;;5074693;28;20652;-79
2021/03/22 00:26:47;;;;;;;20.60;4.47;;;6.60;77.90;;;;;;5073050;28;20240;-79
2021/03/22 00:29:13;;;;;;;12.30;5.70;;;6.60;77.90;;;;;;5072847;28;20211;-79
2021/03/22 00:31:39;;;;;;;14.50;4.97;;;6.60;77.90;;;;;;5072315;28;20200;-77
2021/03/22 00:34:04;;;;;;;18.83;4.30;;;6.60;77.90;;;;;;5073100;28;20176;-77
2021/03/22 00:36:30;;;;;;;28.53;4.57;;;6.60;78.00;;;;;;5074118;28;20576;-77
2021/03/22 00:38:56;;;;;;;20.67;5.00;;;6.50;78.10;;;;;;5072591;28;20187;-78
2021/03/22 00:41:23;;;;;;;14.40;4.30;;;6.50;78.20;;;;;;5072193;28;20196;-77
2021/03/22 00:43:50;;;;;;;10.57;4.90;;;6.50;78.20;;;;;;5072551;28;20219;-78
2021/03/22 00:46:15;;;;;;;19.15;4.50;;;6.60;78.00;;;;;;5072553;28;20229;-78
2021/03/22 00:48:41;;;;;;;17.40;6.03;;;6.50;78.00;;;;;;5073020;28;20180;-77
2021/03/22 00:51:07;;;;;;;25.50;5.40;;;6.50;78.00;;;;;;5073768;28;20752;-78
2021/03/22 00:53:36;;;;;;;19.77;5.43;;;6.40;78.10;;;;;;5074276;28;20169;-78
2021/03/22 00:56:04;;;;;;;15.52;4.70;;;6.40;78.40;;;;;;5072921;28;20210;-78
2021/03/22 00:58:29;;;;;;;16.17;5.05;;;6.50;78.50;;;;;;5074510;28;20169;-78
2021/03/22 01:00:57;;;;;;;22.33;5.03;;;6.40;78.40;;;;;;5072448;28;20709;-78
2021/03/22 01:03:30;;;;;;;15.60;5.32;;;6.40;78.50;;;;;;5072903;28;20216;-78
2021/03/22 01:05:57;;;;;;;15.25;5.43;;;6.40;78.70;;;;;;5074932;28;20176;-78
2021/03/22 01:08:26;;;;;;;16.05;5.32;;;6.40;78.80;;;;;;5078557;28;20184;-78
2021/03/22 01:11:05;;;;;;;33.70;5.93;;;6.40;78.90;;;;;;5075996;28;20184;-78
2021/03/22 01:13:35;;;;;;;18.20;5.28;;;6.40;79.00;;;;;;5076351;28;20207;-78
2021/03/22 01:16:03;;;;;;;26.35;5.53;;;6.40;78.80;;;;;;5078786;28;20184;-77
2021/03/22 01:18:31;;;;;;;17.20;6.55;;;6.40;78.80;;;;;;5072300;28;20222;-78
2021/03/22 01:21:05;;;;;;;27.40;6.20;;;6.40;78.90;;;;;;5071911;28;20180;-78
2021/03/22 01:23:31;;;;;;;16.63;6.75;;;6.40;78.90;;;;;;5073674;28;20275;-78
2021/03/22 01:25:57;;;;;;;18.27;7.00;;;6.30;79.00;;;;;;5072298;28;20263;-78
2021/03/22 01:28:23;;;;;;;25.83;5.57;;;6.30;79.20;;;;;;5079101;28;20483;-77
2021/03/22 01:30:53;;;;;;;35.60;6.37;;;6.30;79.20;;;;;;5077983;28;20177;-77
2021/03/22 01:33:27;;;;;;;20.63;6.25;;;6.40;79.30;;;;;;5071644;28;20435;-77
2021/03/22 01:35:56;;;;;;;38.13;6.97;;;6.40;79.20;;;;;;5072557;28;20184;-77
2021/03/22 01:38:22;;;;;;;25.42;7.28;;;6.40;79.20;;;;;;5068858;28;20185;-79
2021/03/22 01:40:57;;;;;;;16.57;6.90;;;6.40;79.20;;;;;;5072127;28;20667;-78
2021/03/22 01:43:52;;;;;;;21.27;6.03;;;6.50;79.00;;;;;;5060997;28;20228;-78
2021/03/22 01:46:21;;;;;;;23.30;5.18;;;6.50;78.80;;;;;;5053296;28;20201;-79
2021/03/22 01:48:47;;;;;;;18.52;6.55;;;6.50;78.70;;;;;;5052140;28;20183;-79
2021/03/22 01:51:12;;;;;;;21.33;5.83;;;6.60;78.50;;;;;;5052971;28;20286;-79
2021/03/22 01:53:39;;;;;;;17.33;5.60;;;6.70;78.40;;;;;;5053354;28;20169;-78
2021/03/22 01:56:22;;;;;;;16.52;5.85;;;6.80;78.00;;;;;;5053282;28;20173;-78
2021/03/22 01:58:48;;;;;;;20.70;6.40;;;6.80;77.40;;;;;;5057511;28;20161;-78
2021/03/22 02:01:15;;;;;;;23.42;5.95;;;6.80;77.20;;;;;;5071107;28;20611;-78
2021/03/22 02:03:42;;;;;;;19.38;6.43;;;6.80;76.90;;;;;;5071922;28;20566;-78
2021/03/22 02:06:08;;;;;;;19.95;5.72;;;6.90;76.80;;;;;;5072969;28;20179;-78
2021/03/22 02:08:40;;;;;;;29.53;7.57;;;7.00;76.40;;;;;;5071478;28;20177;-78
2021/03/22 02:11:20;;;;;;;13.23;5.55;;;7.00;76.20;;;;;;5072277;28;20436;-80
2021/03/22 02:13:46;;;;;;;20.63;5.80;;;7.10;76.00;;;;;;5071894;28;20173;-80
2021/03/22 02:16:25;;;;;;;17.10;5.60;;;7.30;75.70;;;;;;5073279;28;20204;-80
2021/03/22 02:19:05;;;;;;;20.40;6.35;;;7.40;74.50;;;;;;5071965;28;20245;-79
2021/03/22 02:21:52;;;;;;;15.93;6.05;;;7.40;74.30;;;;;;5071380;28;20211;-79
2021/03/22 02:24:36;;;;;;;21.10;5.85;;;7.40;73.80;;;;;;5073069;28;20153;-79
2021/03/22 02:27:33;;;;;;;16.55;6.75;;;7.40;73.60;;;;;;5076975;28;20145;-79
2021/03/22 02:30:22;;;;;;;12.38;5.47;;;7.60;73.20;;;;;;5076822;28;20173;-79
2021/03/22 02:33:09;;;;;;;14.18;5.13;;;7.70;72.90;;;;;;5076129;28;20192;-78
2021/03/22 02:36:02;;;;;;;18.35;6.35;;;7.50;72.20;;;;;;5076959;28;20264;-79
2021/03/22 02:38:32;;;;;;;15.90;5.53;;;7.50;72.20;;;;;;5076648;28;20187;-79
2021/03/22 02:41:11;;;;;;;18.38;6.20;;;7.70;72.10;;;;;;5076264;28;20161;-78
2021/03/22 02:43:38;;;;;;;23.65;5.72;;;7.40;71.70;;;;;;5075047;28;20216;-79
2021/03/22 02:46:05;;;;;;;20.63;5.80;;;7.50;71.90;;;;;;5075300;28;20180;-78
2021/03/22 02:48:33;;;;;;;25.70;6.10;;;7.60;71.50;;;;;;5076249;28;20286;-78
2021/03/22 02:51:35;;;;;;;19.17;6.10;;;7.70;71.00;;;;;;5075686;28;20198;-78
2021/03/22 02:54:14;;;;;;;27.13;6.22;;;7.60;70.70;;;;;;5076141;28;20321;-78
2021/03/22 02:57:01;;;;;;;11.70;5.30;;;7.50;71.00;;;;;;5075997;28;20169;-77
2021/03/22 02:59:32;;;;;;;16.08;6.40;;;7.60;70.70;;;;;;5075853;28;20165;-78
2021/03/22 03:02:04;;;;;;;17.83;5.47;;;7.40;70.70;;;;;;5073904;28;20212;-79
2021/03/22 03:04:35;;;;;;;22.42;6.10;;;7.60;70.40;;;;;;5076056;28;20160;-79
2021/03/22 03:07:04;;;;;;;16.85;5.20;;;7.40;70.00;;;;;;5074599;28;20169;-79
2021/03/22 03:09:34;;;;;;;15.00;5.63;;;7.10;70.40;;;;;;5074622;28;20708;-78
2021/03/22 03:12:11;;;;;;;16.10;5.80;;;7.10;70.50;;;;;;5074141;28;20201;-78
2021/03/22 03:14:36;;;;;;;19.30;5.43;;;7.10;70.20;;;;;;5075937;28;20183;-78
2021/03/22 03:17:03;;;;;;;23.07;6.53;;;7.40;70.10;;;;;;5074517;28;20185;-79
2021/03/22 03:19:29;;;;;;;16.70;5.90;;;7.40;69.40;;;;;;5074486;28;20414;-78
2021/03/22 03:21:55;;;;;;;9.87;5.73;;;7.40;69.10;;;;;;5073722;28;20254;-79
2021/03/22 03:24:21;;;;;;;16.10;5.97;;;7.40;68.90;;;;;;5074183;28;20410;-78
2021/03/22 03:26:46;;;;;;;13.57;5.90;;;7.60;68.40;;;;;;5074273;28;20576;-78
2021/03/22 03:29:12;;;;;;;9.83;5.20;;;7.70;68.10;;;;;;5074054;28;20206;-78
2021/03/22 03:31:38;;;;;;;12.03;6.10;;;7.60;67.70;;;;;;5073370;28;20200;-78
2021/03/22 03:34:07;;;;;;;24.47;6.40;;;7.60;67.60;;;;;;5075516;28;20235;-78
2021/03/22 03:36:33;;;;;;;14.73;6.00;;;7.60;67.50;;;;;;5073727;28;20185;-78
2021/03/22 03:38:59;;;;;;;11.67;5.33;;;7.60;67.40;;;;;;5073911;28;20192;-78
2021/03/22 03:41:25;;;;;;;9.75;5.10;;;7.50;67.70;;;;;;5073462;28;20515;-79
2021/03/22 03:43:51;;;;;;;16.37;5.10;;;7.70;67.90;;;;;;5075190;28;20267;-78
2021/03/22 03:46:16;;;;;;;12.00;4.70;;;7.70;67.50;;;;;;5073648;28;20291;-78
2021/03/22 03:48:42;;;;;;;10.83;4.53;;;7.80;67.40;;;;;;5073823;28;20230;-78
2021/03/22 03:51:08;;;;;;;13.10;5.30;;;7.80;67.40;;;;;;5073264;28;20421;-79
2021/03/22 03:53:34;;;;;;;8.50;3.53;;;7.50;68.00;;;;;;5073864;28;20197;-78
2021/03/22 03:56:00;;;;;;;14.53;4.50;;;7.50;68.60;;;;;;5075222;28;20846;-78
2021/03/22 03:58:26;;;;;;;15.85;4.93;;;7.30;69.40;;;;;;5073815;28;20791;-77
2021/03/22 04:00:52;;;;;;;11.50;3.95;;;7.20;70.00;;;;;;5073130;28;20263;-78
2021/03/22 04:03:30;;;;;;;12.27;4.87;;;7.30;70.60;;;;;;5074135;28;20285;-79
2021/03/22 04:06:11;;;;;;;19.25;4.30;;;7.30;70.90;;;;;;5073808;28;20463;-78
2021/03/22 04:08:43;;;;;;;13.75;5.25;;;7.20;71.80;;;;;;5073803;28;20164;-78
2021/03/22 04:11:12;;;;;;;21.92;4.57;;;7.20;71.20;;;;;;5074157;28;20172;-79
2021/03/22 04:13:38;;;;;;;16.25;5.43;;;7.20;71.40;;;;;;5075564;28;20246;-80
2021/03/22 04:16:07;;;;;;;13.20;4.88;;;7.20;71.60;;;;;;5075380;28;20211;-79
2021/03/22 04:18:37;;;;;;;15.00;5.25;;;7.20;71.60;;;;;;5074242;28;20188;-79
2021/03/22 04:21:14;;;;;;;9.15;4.68;;;7.40;71.80;;;;;;5073867;28;20192;-78
2021/03/22 04:23:45;;;;;;;16.35;5.20;;;7.40;71.70;;;;;;5073040;28;20558;-78
2021/03/22 04:26:12;;;;;;;11.18;4.38;;;7.50;72.50;;;;;;5074528;28;20153;-79
2021/03/22 04:28:38;;;;;;;9.40;4.40;;;7.60;71.20;;;;;;5072944;28;20188;-78
2021/03/22 04:31:04;;;;;;;10.93;5.10;;;7.50;71.20;;;;;;5073578;28;20516;-78
2021/03/22 04:33:30;;;;;;;17.75;4.50;;;7.40;71.10;;;;;;5074334;28;20200;-78
2021/03/22 04:35:57;;;;;;;12.23;3.72;;;7.50;71.10;;;;;;5072909;28;20202;-79
2021/03/22 04:38:23;;;;;;;14.30;5.88;;;7.50;70.70;;;;;;5074450;28;20180;-79
2021/03/22 04:40:49;;;;;;;9.50;3.58;;;7.50;70.70;;;;;;5073618;28;20193;-78
2021/03/22 04:43:15;;;;;;;12.98;5.05;;;7.60;70.50;;;;;;5073700;28;20216;-78
2021/03/22 04:45:41;;;;;;;14.80;4.90;;;7.50;70.50;;;;;;5072780;28;20211;-79
2021/03/22 04:48:07;;;;;;;16.02;5.43;;;7.20;70.50;;;;;;5073071;28;20407;-78
2021/03/22 04:50:34;;;;;;;14.85;5.03;;;7.30;70.80;;;;;;5073266;28;20172;-79
2021/03/22 04:53:00;;;;;;;12.70;4.63;;;7.50;70.60;;;;;;5072560;28;20207;-79
2021/03/22 04:55:26;;;;;;;23.13;5.30;;;7.50;70.10;;;;;;5072492;28;20180;-78
2021/03/22 04:57:53;;;;;;;21.60;5.85;;;7.50;70.10;;;;;;5072874;28;20176;-79
2021/03/22 05:00:27;;;;;;;20.20;5.15;;;7.30;70.10;;;;;;5072215;28;20599;-78
2021/03/22 05:02:54;;;;;;;16.15;6.00;;;7.40;69.90;;;;;;5072705;28;20227;-77
2021/03/22 05:05:21;;;;;;;16.30;6.65;;;7.30;70.00;;;;;;5072281;28;20177;-77
2021/03/22 05:07:47;;;;;;;13.23;5.93;;;7.30;69.60;;;;;;5073643;28;20194;-77
2021/03/22 05:10:26;;;;;;;18.13;6.50;;;7.40;69.50;;;;;;5073667;28;20166;-77
2021/03/22 05:12:52;;;;;;;18.15;6.82;;;7.30;68.90;;;;;;5073529;28;20275;-79
2021/03/22 05:15:18;;;;;;;19.30;6.20;;;7.40;68.50;;;;;;5072252;28;20231;-78
2021/03/22 05:17:44;;;;;;;16.02;6.10;;;7.30;68.40;;;;;;5073502;28;20184;-78
2021/03/22 05:20:23;;;;;;;9.77;5.07;;;7.40;68.20;;;;;;5072231;28;20184;-77
2021/03/22 05:22:49;;;;;;;11.63;5.32;;;7.40;68.00;;;;;;5071428;28;20549;-77
2021/03/22 05:25:16;;;;;;;16.20;5.43;;;7.50;67.70;;;;;;5072052;28;20264;-77
2021/03/22 05:27:43;;;;;;;16.45;4.47;;;7.30;67.80;;;;;;5073415;28;20158;-79
2021/03/22 05:30:10;;;;;;;10.63;5.10;;;7.50;68.10;;;;;;5072089;28;20561;-78
2021/03/22 05:32:37;;;;;;;18.00;5.20;;;7.40;68.00;;;;;;5071418;28;20304;-78
2021/03/22 05:35:15;;;;;;;12.90;5.88;;;7.40;68.20;;;;;;5072167;28;20188;-78
2021/03/22 05:37:42;;;;;;;12.68;4.25;;;7.30;68.50;;;;;;5073478;28;20161;-78
2021/03/22 05:40:12;;;;;;;12.25;6.00;;;7.30;68.90;;;;;;5071936;28;20212;-78
2021/03/22 05:43:09;;;;;;;12.88;4.55;;;7.30;69.10;;;;;;5072610;28;20208;-78
2021/03/22 05:45:53;;;;;;;15.52;5.05;;;7.10;69.60;;;;;;5071983;28;20203;-78
2021/03/22 05:48:44;;;;;;;18.75;4.95;;;7.10;69.90;;;;;;5071823;28;20169;-78
2021/03/22 05:51:59;;;;;;;17.25;4.97;;;7.10;69.80;;;;;;5072655;28;20302;-78
2021/03/22 05:54:37;;;;;;;17.92;5.43;;;7.10;69.90;;;;;;5014355;28;20281;-78
2021/03/22 05:57:15;;;;;;;14.05;4.40;;;7.30;69.70;;;;;;5072128;28;20191;-78
2021/03/22 06:00:02;;;;;;;18.17;4.85;;;7.20;68.80;;;;;;5073646;28;20175;-78
2021/03/22 06:02:42;;;;;;;20.13;4.80;;;7.20;68.90;;;;;;5075025;28;20200;-77
2021/03/22 06:05:47;;;;;;;14.75;5.10;;;7.20;68.90;;;;;;5075854;28;20631;-77
2021/03/22 06:08:37;;;;;;;18.52;5.40;;;7.30;68.70;;;;;;5075566;28;20169;-77
2021/03/22 06:11:35;;;;;;;19.95;6.00;;;7.50;68.40;;;;;;5076682;28;20160;-78
2021/03/22 06:14:29;;;;;;;14.70;5.40;;;7.60;68.00;;;;;;5076743;28;20586;-78
2021/03/22 06:17:26;;;;;;;11.43;5.13;;;7.50;67.80;;;;;;5077014;28;20168;-76
2021/03/22 06:19:59;;;;;;;16.00;4.88;;;7.70;68.00;;;;;;5072175;28;20673;-77
2021/03/22 06:22:31;;;;;;;11.27;4.15;;;7.60;67.30;;;;;;5074748;28;20242;-77
2021/03/22 06:25:15;;;;;;;11.23;5.85;;;7.40;67.50;;;;;;5075382;28;20161;-77
2021/03/22 06:27:41;;;;;;;8.95;4.30;;;7.70;67.50;;;;;;5075368;28;20196;-77
2021/03/22 06:30:07;;;;;;;10.07;4.53;;;7.70;67.30;;;;;;5075328;28;20211;-77
2021/03/22 06:32:48;;;;;;;19.58;6.07;;;8.00;67.00;;;;;;5075997;28;20986;-77
2021/03/22 06:35:31;;;;;;;11.55;5.07;;;7.70;66.30;;;;;;5075301;28;20188;-77
2021/03/22 06:37:56;;;;;;;12.35;4.93;;;7.80;66.20;;;;;;5075200;28;20623;-77
2021/03/22 06:40:25;;;;;;;14.67;5.07;;;7.80;66.00;;;;;;5075081;28;20237;-77
2021/03/22 06:43:18;;;;;;;13.02;5.00;;;8.00;65.80;;;;;;5074790;28;20250;-77
2021/03/22 06:45:48;;;;;;;18.60;5.20;;;7.90;65.80;;;;;;5074573;28;20175;-77
2021/03/22 06:48:19;;;;;;;15.40;5.13;;;7.90;65.30;;;;;;5076228;28;20165;-77
2021/03/22 06:50:47;;;;;;;19.08;6.05;;;7.90;66.10;;;;;;5075818;28;20189;-77
2021/03/22 06:53:38;;;;;;;19.13;5.00;;;7.80;65.30;;;;;;5074873;28;20193;-77
2021/03/22 06:56:15;;;;;;;17.50;4.50;;;7.90;65.60;;;;;;5074594;28;20181;-78
2021/03/22 06:58:42;;;;;;;11.80;5.25;;;7.90;65.30;;;;;;5074423;28;20180;-78
2021/03/22 07:01:21;;;;;;;16.10;4.57;;;8.00;65.20;;;;;;5056349;28;20182;-77
2021/03/22 07:03:47;;;;;;;14.27;5.43;;;7.90;65.20;;;;;;5070157;28;20730;-78
2021/03/22 07:06:23;;;;;;;13.55;5.38;;;7.70;65.20;;;;;;5076178;28;20173;-77
2021/03/22 07:08:49;;;;;;;9.70;4.60;;;7.80;65.10;;;;;;5076411;28;20153;-78
2021/03/22 07:11:22;;;;;;;12.60;5.47;;;8.00;64.90;;;;;;5072816;28;20314;-77
2021/03/22 07:14:06;;;;;;;18.48;5.00;;;8.20;64.10;;;;;;5074690;28;20168;-77
2021/03/22 07:16:33;;;;;;;14.10;4.63;;;8.10;63.70;;;;;;5074576;28;20168;-78
2021/03/22 07:19:19;;;;;;;13.05;4.70;;;7.90;63.70;;;;;;5074493;28;20809;-80
2021/03/22 07:21:52;;;;;;;13.32;5.05;;;8.10;63.90;;;;;;5075734;28;20720;-78
2021/03/22 07:24:23;;;;;;;19.92;5.15;;;8.30;63.70;;;;;;5074387;28;20280;-78
2021/03/22 07:27:07;;;;;;;11.65;6.07;;;8.40;63.20;;;;;;5075039;28;20176;-79
2021/03/22 07:29:51;;;;;;;17.40;4.28;;;8.50;62.90;;;;;;5076224;28;20161;-79
2021/03/22 07:32:32;;;;;;;11.07;4.10;;;8.10;62.60;;;;;;5074368;28;20283;-79
2021/03/22 07:35:26;;;;;;;15.35;4.95;;;8.10;63.20;;;;;;5074942;28;20181;-78
2021/03/22 07:38:10;;;;;;;17.13;5.90;;;8.00;63.40;;;;;;5059971;28;20482;-77
2021/03/22 07:41:01;;;;;;;19.98;6.32;;;8.00;63.40;;;;;;5054943;28;20682;-78
2021/03/22 07:44:10;;;;;;;16.33;5.57;;;8.10;63.60;;;;;;5073366;28;20216;-77
2021/03/22 07:46:47;;;;;;;13.73;5.03;;;8.30;63.40;;;;;;5075108;28;20172;-78
2021/03/22 07:49:20;;;;;;;17.42;4.93;;;8.30;62.90;;;;;;5073472;28;20177;-77
2021/03/22 07:52:10;;;;;;;16.90;5.95;;;8.30;62.90;;;;;;5073639;28;20199;-77
2021/03/22 07:54:58;;;;;;;8.10;4.75;;;8.60;62.30;;;;;;5060573;28;20191;-79
2021/03/22 07:57:44;;;;;;;12.45;5.65;;;8.60;61.90;;;;;;5053479;28;20185;-78
2021/03/22 08:00:25;;;;;;;17.70;5.43;;;8.30;61.90;;;;;;5070645;28;20191;-78
2021/03/22 08:03:06;;;;;;;14.18;5.97;;;8.40;61.80;;;;;;5055405;28;20267;-79
2021/03/22 08:06:13;;;;;;;21.83;5.68;;;8.40;61.90;;;;;;5054881;28;20207;-77
2021/03/22 08:08:55;;;;;;;22.02;5.40;;;8.50;61.60;;;;;;5053586;28;20181;-78
2021/03/22 08:11:41;;;;;;;14.05;4.63;;;8.50;61.70;;;;;;5053127;28;20519;-78
2021/03/22 08:14:43;;;;;;;8.90;5.05;;;8.40;61.60;;;;;;5055022;28;20192;-78
2021/03/22 08:17:52;;;;;;;12.35;4.65;;;8.80;61.00;;;;;;5012882;28;20193;-78
2021/03/22 08:20:33;;;;;;;13.63;4.18;;;8.60;60.50;;;;;;4993446;28;20323;-79
2021/03/22 08:23:15;;;;;;;10.57;4.03;;;9.00;60.50;;;;;;4976930;28;20213;-78
2021/03/22 08:25:47;;;;;;;15.70;4.60;;;9.00;59.40;;;;;;5030919;28;20224;-79
2021/03/22 08:28:28;;;;;;;8.70;4.07;;;9.00;58.70;;;;;;5073255;28;20218;-78
2021/03/22 08:31:12;;;;;;;12.15;3.30;;;9.10;58.40;;;;;;5073882;28;20172;-79
2021/03/22 08:33:54;;;;;;;11.40;2.95;;;9.30;58.00;;;;;;5073434;28;20176;-79
2021/03/22 08:36:31;;;;;;;14.23;3.58;;;9.10;57.60;;;;;;5075067;28;20256;-78
2021/03/22 08:39:24;;;;;;;13.10;4.75;;;9.10;57.80;;;;;;5074714;28;20161;-78
2021/03/22 08:41:58;;;;;;;12.65;4.45;;;8.80;58.60;;;;;;5072480;28;20342;-78
2021/03/22 08:44:52;;;;;;;22.42;5.90;;;8.80;59.70;;;;;;5073084;28;20654;-78
2021/03/22 08:47:36;;;;;;;14.93;5.35;;;8.90;60.70;;;;;;5074310;28;20624;-78
2021/03/22 08:50:16;;;;;;;8.80;4.50;;;9.00;61.10;;;;;;5073213;28;20171;-78
2021/03/22 08:53:07;;;;;;;21.85;4.40;;;9.50;61.10;;;;;;5072631;28;20257;-78
2021/03/22 08:55:39;;;;;;;9.48;3.92;;;9.40;60.30;;;;;;5072959;28;20180;-78
2021/03/22 08:58:33;;;;;;;20.52;5.07;;;8.90;61.10;;;;;;5074238;28;20594;-79
2021/03/22 09:01:08;;;;;;;12.15;4.95;;;8.80;61.80;;;;;;5066282;28;20651;-78
2021/03/22 09:03:40;;;;;;;14.10;5.70;;;9.00;62.10;;;;;;5073494;28;20238;-78
2021/03/22 09:06:25;;;;;;;16.05;4.90;;;9.30;62.00;;;;;;5072540;28;20184;-78
2021/03/22 09:08:53;;;;;;;7.68;4.07;;;9.40;61.40;;;;;;5073937;28;20191;-78
2021/03/22 09:11:26;;;;;;;17.75;5.88;;;9.10;61.10;;;;;;5071709;28;20197;-78
2021/03/22 09:14:27;;;;;;;14.30;3.50;;;8.80;61.80;;;;;;5072152;28;20180;-78
2021/03/22 09:16:54;;;;;;;17.00;3.20;;;8.70;62.30;;;;;;5039536;28;20191;-78
2021/03/22 09:19:19;;;;;;;6.72;3.00;;;8.80;62.30;;;;;;5072247;28;20202;-78
2021/03/22 09:22:12;;;;;;;4.93;2.73;;;9.00;61.70;;;;;;5072797;28;20258;-78
2021/03/22 09:24:38;;;;;;;5.97;2.38;;;9.20;61.40;;;;;;5072033;28;20655;-78
2021/03/22 09:27:16;;;;;;;5.53;3.13;;;9.40;60.10;;;;;;5073849;28;20176;-78
2021/03/22 09:29:47;;;;;;;13.75;4.57;;;9.10;60.20;;;;;;5073414;28;20168;-78
2021/03/22 09:32:29;;;;;;;10.70;2.85;;;9.00;60.80;;;;;;5071134;28;20642;-78
2021/03/22 09:35:00;;;;;;;19.50;4.07;;;9.20;60.70;;;;;;5071641;28;20261;-79
2021/03/22 09:37:54;;;;;;;17.88;3.95;;;9.00;60.70;;;;;;5073390;28;20164;-80
2021/03/22 09:40:20;;;;;;;8.90;2.90;;;9.10;60.90;;;;;;5073518;28;20168;-78
2021/03/22 09:43:04;;;;;;;11.73;3.67;;;9.30;60.50;;;;;;5072807;28;20204;-79
2021/03/22 09:45:50;;;;;;;4.50;2.88;;;9.50;59.90;;;;;;5065662;28;20504;-79
2021/03/22 09:48:16;;;;;;;12.98;2.70;;;9.40;59.90;;;;;;5045011;28;20177;-78
2021/03/22 09:50:59;;;;;;;8.53;2.93;;;9.70;59.60;;;;;;5052550;28;20695;-77
2021/03/22 09:53:51;;;;;;;12.93;3.10;;;9.50;58.90;;;;;;5052109;28;20173;-78
2021/03/22 09:57:02;;;;;;;15.25;3.90;;;9.20;59.80;;;;;;5053906;28;20161;-78
2021/03/22 09:59:37;;;;;;;11.55;3.58;;;9.30;60.00;;;;;;5058206;28;20298;-78
2021/03/22 10:02:30;;;;;;;5.50;2.45;;;9.50;59.90;;;;;;5071237;28;20272;-78
2021/03/22 10:05:14;;;;;;;6.57;3.20;;;9.40;58.90;;;;;;5071553;28;20177;-78
2021/03/22 10:07:40;;;;;;;13.07;2.67;;;9.60;58.70;;;;;;5071872;28;20173;-78
2021/03/22 10:10:29;;;;;;;9.70;2.50;;;9.90;58.10;;;;;;5071566;28;20172;-77
2021/03/22 10:13:10;;;;;;;9.48;2.60;;;9.60;57.50;;;;;;5073053;28;20647;-78
2021/03/22 10:15:51;;;;;;;9.38;3.63;;;9.40;58.00;;;;;;5067036;28;20200;-77
2021/03/22 10:18:32;;;;;;;7.68;3.50;;;9.60;58.00;;;;;;5061984;28;20176;-77
2021/03/22 10:21:24;;;;;;;9.40;2.72;;;9.50;58.30;;;;;;5052474;28;20579;-77
2021/03/22 10:23:58;;;;;;;6.53;3.05;;;9.30;59.20;;;;;;5056857;28;20211;-78
2021/03/22 10:26:28;;;;;;;10.30;3.17;;;9.40;59.40;;;;;;5073215;28;20176;-78
2021/03/22 10:29:13;;;;;;;4.72;2.70;;;9.30;59.30;;;;;;5071732;28;20180;-79
2021/03/22 10:31:40;;;;;;;10.52;3.40;;;9.10;59.40;;;;;;5070578;28;20666;-79
2021/03/22 10:34:06;;;;;;;8.73;3.50;;;9.10;59.90;;;;;;5072969;28;20180;-79
2021/03/22 10:36:37;;;;;;;5.60;3.00;;;9.20;59.90;;;;;;5072996;28;20744;-78
2021/03/22 10:39:07;;;;;;;13.50;3.15;;;9.10;60.00;;;;;;5071554;28;20169;-78
2021/03/22 10:41:39;;;;;;;10.63;2.60;;;9.40;59.40;;;;;;5072035;28;20192;-77
2021/03/22 10:44:14;;;;;;;2.70;2.05;;;9.30;58.20;;;;;;5071059;28;20268;-78
2021/03/22 10:46:40;;;;;;;7.38;3.08;;;9.40;57.60;;;;;;5063305;28;20197;-77
2021/03/22 10:49:23;;;;;;;6.68;2.70;;;9.60;56.90;;;;;;5055547;28;20192;-78
2021/03/22 10:51:52;;;;;;;7.35;2.60;;;9.50;56.80;;;;;;5054513;28;20197;-78
2021/03/22 10:54:46;;;;;;;5.63;2.40;;;9.40;57.30;;;;;;5055132;28;20680;-77
2021/03/22 10:57:22;;;;;;;5.03;2.65;;;9.80;57.60;;;;;;5062694;28;20592;-78
2021/03/22 10:59:52;;;;;;;5.47;2.25;;;9.60;57.60;;;;;;5074581;28;20355;-78
2021/03/22 11:02:34;;;;;;;6.75;2.60;;;9.40;58.10;;;;;;5074245;28;20231;-78
2021/03/22 11:05:12;;;;;;;9.13;2.70;;;9.50;58.60;;;;;;5068246;28;20186;-78
2021/03/22 11:07:39;;;;;;;7.50;2.22;;;9.30;59.60;;;;;;5055018;28;20271;-78
2021/03/22 11:10:19;;;;;;;8.60;2.60;;;9.30;59.80;;;;;;5054876;28;20193;-78
2021/03/22 11:12:48;;;;;;;4.95;2.13;;;9.40;59.70;;;;;;5054196;28;20299;-78
2021/03/22 11:15:20;;;;;;;3.05;1.80;;;9.30;59.00;;;;;;5055928;28;20185;-78
2021/03/22 11:17:47;;;;;;;4.95;1.77;;;9.20;58.20;;;;;;5055984;28;20230;-79
2021/03/22 11:20:16;;;;;;;8.43;2.25;;;9.20;58.10;;;;;;5056180;28;20173;-79
2021/03/22 11:22:45;;;;;;;6.28;1.95;;;9.20;57.20;;;;;;5055593;28;20281;-78
2021/03/22 11:25:29;;;;;;;4.72;1.55;;;9.20;57.30;;;;;;5055034;28;20184;-79
2021/03/22 11:27:59;;;;;;;5.93;2.47;;;9.40;57.00;;;;;;5054821;28;20177;-79
2021/03/22 11:30:41;;;;;;;5.28;2.30;;;9.20;56.50;;;;;;5054708;28;20191;-79
2021/03/22 11:33:14;;;;;;;5.00;1.60;;;9.20;56.60;;;;;;5055939;28;20209;-79
2021/03/22 11:35:41;;;;;;;3.20;1.92;;;9.40;56.20;;;;;;5054381;28;20680;-79
2021/03/22 11:38:23;;;;;;;3.50;1.85;;;9.40;56.10;;;;;;5055071;28;20535;-79
2021/03/22 11:40:50;;;;;;;2.88;1.80;;;9.40;56.20;;;;;;5060313;28;20580;-79
2021/03/22 11:43:37;;;;;;;8.75;2.50;;;9.50;56.40;;;;;;5074148;28;20616;-79
2021/03/22 11:46:23;;;;;;;4.20;2.50;;;9.60;56.00;;;;;;5075920;28;20609;-79
2021/03/22 11:48:49;;;;;;;3.55;2.05;;;9.60;55.70;;;;;;5070652;28;20239;-79
2021/03/22 11:51:15;;;;;;;4.50;2.57;;;9.70;55.60;;;;;;5060553;28;20180;-80
2021/03/22 11:54:03;;;;;;;3.97;3.20;;;9.60;55.10;;;;;;5074934;28;20419;-79
2021/03/22 11:56:31;;;;;;;4.68;2.60;;;9.90;54.80;;;;;;5064886;28;20420;-79
2021/03/22 11:59:07;;;;;;;13.77;3.50;;;9.80;54.60;;;;;;5058920;28;20560;-79
2021/03/22 12:01:33;;;;;;;5.30;2.42;;;9.70;54.50;;;;;;5075960;28;20192;-80
2021/03/22 12:04:05;;;;;;;5.60;2.50;;;9.60;54.50;;;;;;5074269;28;20276;-80
2021/03/22 12:06:32;;;;;;;4.68;2.00;;;9.80;54.40;;;;;;5074692;28;20173;-80
2021/03/22 12:08:58;;;;;;;10.32;2.75;;;9.90;54.40;;;;;;5074350;28;20180;-79
2021/03/22 12:11:30;;;;;;;4.30;3.10;;;10.00;53.90;;;;;;5073959;28;20207;-80
2021/03/22 12:14:00;;;;;;;7.63;2.33;;;10.00;53.50;;;;;;5075736;28;20157;-79
2021/03/22 12:16:32;;;;;;;4.38;2.50;;;10.20;53.20;;;;;;5074510;28;20603;-80
2021/03/22 12:19:04;;;;;;;5.22;3.00;;;10.50;53.00;;;;;;5074395;28;20172;-80
2021/03/22 12:21:30;;;;;;;5.10;2.70;;;10.50;52.20;;;;;;5073305;28;20258;-79
2021/03/22 12:23:55;;;;;;;6.50;3.03;;;10.50;51.90;;;;;;5074039;28;20662;-79
2021/03/22 12:26:21;;;;;;;5.50;3.00;;;10.80;51.50;;;;;;5074238;28;20168;-79
2021/03/22 12:28:56;;;;;;;4.35;2.78;;;11.00;50.80;;;;;;5074529;28;20612;-81
2021/03/22 12:31:27;;;;;;;2.80;2.50;;;10.90;50.50;;;;;;5075006;28;20196;-80
2021/03/22 12:34:00;;;;;;;3.65;2.75;;;10.90;50.30;;;;;;5055724;28;20189;-80
2021/03/22 12:36:37;;;;;;;6.55;3.05;;;10.80;50.20;;;;;;5055625;28;20242;-80
2021/03/22 12:39:16;;;;;;;5.70;3.00;;;10.80;50.30;;;;;;5053906;28;20173;-80
2021/03/22 12:41:42;;;;;;;3.85;2.83;;;10.70;50.90;;;;;;5052021;28;20216;-80
2021/03/22 12:44:08;;;;;;;2.88;2.67;;;10.60;51.50;;;;;;5056149;28;20181;-80
2021/03/22 12:46:34;;;;;;;6.17;4.30;;;10.70;52.10;;;;;;5071820;28;20667;-78
2021/03/22 12:49:00;;;;;;;4.75;2.92;;;11.00;51.90;;;;;;5063258;28;20172;-79
2021/03/22 12:51:25;;;;;;;6.50;2.50;;;10.80;51.60;;;;;;5061379;28;20193;-79
2021/03/22 12:53:51;;;;;;;4.23;2.70;;;10.60;51.70;;;;;;5060814;28;20258;-79
2021/03/22 12:56:23;;;;;;;10.23;2.40;;;10.40;52.00;;;;;;5063518;28;20256;-78
2021/03/22 12:58:49;;;;;;;6.03;2.50;;;10.40;52.30;;;;;;5064789;28;20165;-78
2021/03/22 13:01:18;;;;;;;6.70;2.93;;;10.40;52.30;;;;;;5060216;28;20640;-79
2021/03/22 13:03:44;;;;;;;2.80;2.20;;;10.50;52.10;;;;;;5059159;28;20193;-79
2021/03/22 13:06:09;;;;;;;2.50;2.30;;;10.50;51.80;;;;;;5061038;28;20591;-79
2021/03/22 13:08:35;;;;;;;8.93;2.10;;;10.50;51.50;;;;;;5077890;28;20223;-78
2021/03/22 13:11:02;;;;;;;4.83;2.60;;;10.30;51.10;;;;;;5067471;28;20173;-79
2021/03/22 13:13:28;;;;;;;4.82;2.60;;;10.50;51.30;;;;;;5059548;28;20828;-78
2021/03/22 13:15:54;;;;;;;3.67;2.37;;;10.70;51.30;;;;;;5067772;28;20191;-78
2021/03/22 13:18:29;;;;;;;6.20;2.50;;;10.80;50.90;;;;;;5058129;28;20188;-78
2021/03/22 13:20:57;;;;;;;3.78;2.33;;;11.00;50.50;;;;;;5067391;28;20647;-78
2021/03/22 13:23:25;;;;;;;3.90;2.83;;;10.80;50.00;;;;;;5073026;28;20299;-77